PILOTS ONLINE: 274    ATC ONLINE: 49

KSTS

Charles M. Schulz Sonoma County Airport

Location

IATA STS
City Santa Rosa
Country  United States
Latitude 38° 30' 32" N
Longitude 122° 48' 46" W
Elevation 128 ft
Type Medium Airport

Map

Weather

METAR
2014/10/01 11:53
KSTS 011153Z AUTO 34006KT 10SM CLR 12/09 A2986 RMK AO2 SLP106 T01170089 10156 20111 53001
TAF
2014/10/01 12:21
TAF KSTS 011120Z 0112/0212 VRB03KT P6SM SKC 
     FM011800 01007KT P6SM SKC

Runways

01/19 5002 ft / 100 ft
14/32 5115 ft / 150 ft

Outbound flights

Callsign Flying to Pilot ATD/STD ETA Aircraft

Inbound flights

Callsign Flying from Pilot ATD ETA Aircraft